Time;durP1;ratioP1;P1;durP2;ratioP2;P2;SDS_P1;SDS_P2;PMS_P1;PMS_P2;Temp;Humidity;BMP_temperature;BMP_pressure;BME280_temperature;BME280_humidity;BME280_pressure;Samples;Min_cycle;Max_cycle;Signal;HPM_P1;HPM_P2
2022/05/16 00:01:49;;;;;;;6.88;1.50;;;;;;;19.13;34.85;98175.41;5034330;28;20048;-67
2022/05/16 00:04:14;;;;;;;7.78;1.33;;;;;;;19.18;34.18;98175.50;5054097;28;20052;-68
2022/05/16 00:06:42;;;;;;;2.10;1.45;;;;;;;19.18;34.61;98180.88;5036712;28;20048;-67
2022/05/16 00:09:08;;;;;;;2.92;1.50;;;;;;;19.23;33.82;98178.25;5020249;28;20052;-67
2022/05/16 00:11:34;;;;;;;7.20;1.70;;;;;;;19.09;33.38;98155.44;5019747;28;20049;-67
2022/05/16 00:14:02;;;;;;;6.90;1.38;;;;;;;19.29;33.47;98179.16;5002957;28;20400;-67
2022/05/16 00:16:28;;;;;;;6.13;1.50;;;;;;;19.34;33.08;98187.31;5036443;28;20041;-67
2022/05/16 00:18:54;;;;;;;6.30;1.30;;;;;;;19.41;32.78;98188.75;5003182;28;20412;-67
2022/05/16 00:21:22;;;;;;;6.22;1.30;;;;;;;19.47;32.33;98185.06;5053532;28;20052;-67
2022/05/16 00:23:48;;;;;;;3.42;1.35;;;;;;;19.43;31.93;98186.63;5035673;28;20136;-67
2022/05/16 00:26:15;;;;;;;8.98;1.50;;;;;;;19.41;31.89;98187.94;5035865;28;20136;-67
2022/05/16 00:28:41;;;;;;;4.75;1.50;;;;;;;19.43;32.03;98183.13;5036063;28;20308;-67
2022/05/16 00:31:07;;;;;;;1.77;1.00;;;;;;;19.31;32.10;98180.53;5035381;28;20449;-67
2022/05/16 00:33:33;;;;;;;5.43;1.23;;;;;;;19.29;32.00;98158.44;5018814;28;20071;-67
2022/05/16 00:35:59;;;;;;;2.08;1.30;;;;;;;19.55;31.79;98184.63;5035511;28;20063;-67
2022/05/16 00:38:25;;;;;;;4.05;1.20;;;;;;;19.77;31.52;98184.63;5035244;28;20500;-66
2022/05/16 00:40:51;;;;;;;3.33;1.10;;;;;;;19.60;31.50;98181.97;5035353;28;20459;-66
2022/05/16 00:43:40;;;;;;;1.50;1.10;;;;;;;19.63;31.53;98194.16;5019126;28;20080;-67
2022/05/16 00:46:06;;;;;;;3.35;1.27;;;;;;;19.17;31.57;98164.97;5034675;28;20386;-67
2022/05/16 00:48:32;;;;;;;2.92;1.27;;;;;;;19.34;31.68;98187.31;5052786;28;20079;-67
2022/05/16 00:50:58;;;;;;;5.72;1.30;;;;;;;19.50;31.57;98198.03;5035228;28;20578;-67
2022/05/16 00:53:23;;;;;;;3.88;1.30;;;;;;;19.46;31.69;98196.91;5052781;28;20049;-68
2022/05/16 00:55:49;;;;;;;3.50;1.17;;;;;;;19.57;31.65;98182.47;5035061;28;20075;-68
2022/05/16 00:58:16;;;;;;;3.55;1.30;;;;;;;19.59;31.72;98188.44;5018586;28;20135;-67
2022/05/16 01:00:45;;;;;;;6.55;1.40;;;;;;;19.58;32.31;98199.47;5035696;28;20409;-66
2022/05/16 01:05:58;;;;;;;3.78;1.20;;;;;;;19.35;32.39;98199.69;5052669;28;20065;-68
2022/05/16 01:08:25;;;;;;;5.00;1.50;;;;;;;19.52;32.33;98201.28;5034958;28;20531;-68
2022/05/16 01:10:58;;;;;;;3.40;1.20;;;;;;;19.39;32.51;98196.25;5034929;28;20634;-67
2022/05/16 01:13:24;;;;;;;3.38;1.20;;;;;;;19.43;32.53;98199.28;5034651;28;20094;-68
2022/05/16 01:15:50;;;;;;;8.05;1.20;;;;;;;19.22;32.99;98200.03;5018218;28;20056;-67
2022/05/16 01:18:20;;;;;;;2.75;1.17;;;;;;;19.50;32.48;98200.72;5034664;28;20045;-68
2022/05/16 01:20:55;;;;;;;2.95;1.17;;;;;;;19.64;32.20;98201.16;5035007;28;20064;-67
2022/05/16 01:23:24;;;;;;;2.58;1.02;;;;;;;19.50;32.41;98203.41;5034433;28;20136;-68
2022/05/16 01:25:51;;;;;;;1.50;1.13;;;;;;;19.40;32.55;98202.47;5001907;28;20033;-69
2022/05/16 01:28:22;;;;;;;1.80;1.27;;;;;;;19.37;32.78;98211.84;5034753;28;20463;-68
2022/05/16 01:30:50;;;;;;;3.15;1.17;;;;;;;19.26;32.77;98204.69;5034713;28;20067;-69
2022/05/16 01:33:17;;;;;;;2.80;1.10;;;;;;;19.22;32.84;98206.22;5052339;28;20072;-67
2022/05/16 01:35:43;;;;;;;1.23;1.10;;;;;;;19.04;32.63;98190.34;5034532;28;20040;-66
2022/05/16 01:38:18;;;;;;;4.30;1.05;;;;;;;19.12;32.79;98210.66;5034420;28;20056;-67
2022/05/16 01:40:55;;;;;;;2.45;1.10;;;;;;;19.29;32.49;98214.16;5035905;28;20455;-66
2022/05/16 01:43:24;;;;;;;3.55;1.00;;;;;;;19.31;32.34;98217.44;5017911;28;20041;-67
2022/05/16 01:45:50;;;;;;;10.15;1.20;;;;;;;19.01;32.56;98211.53;5034423;28;20039;-68
2022/05/16 01:48:16;;;;;;;1.23;0.90;;;;;;;19.13;32.32;98214.94;5034326;28;20048;-68
2022/05/16 01:50:43;;;;;;;9.18;1.30;;;;;;;19.32;32.42;98227.94;5017690;28;20044;-66
2022/05/16 01:53:10;;;;;;;3.17;1.10;;;;;;;19.33;32.23;98224.19;5033906;28;20393;-66
2022/05/16 01:55:35;;;;;;;2.97;1.38;;;;;;;19.28;32.00;98216.03;5034010;28;20052;-66
2022/05/16 01:58:02;;;;;;;1.45;1.00;;;;;;;19.31;31.95;98212.84;5034005;28;20052;-66
2022/05/16 02:00:28;;;;;;;2.97;0.98;;;;;;;19.21;31.89;98193.84;5033864;28;20055;-67
2022/05/16 02:02:54;;;;;;;1.58;1.10;;;;;;;19.28;31.95;98217.91;5033575;28;20136;-67
2022/05/16 02:05:27;;;;;;;3.45;0.85;;;;;;;19.39;31.95;98222.38;5034232;28;20532;-67
2022/05/16 02:07:53;;;;;;;2.08;0.80;;;;;;;19.22;31.91;98222.38;5034094;28;20090;-67
2022/05/16 02:10:22;;;;;;;1.45;0.90;;;;;;;19.17;31.94;98227.69;5034284;28;20497;-66
2022/05/16 02:12:49;;;;;;;1.10;0.77;;;;;;;19.05;32.13;98226.16;5033968;28;20083;-66
2022/05/16 02:15:17;;;;;;;3.15;1.00;;;;;;;19.22;31.94;98227.75;5033532;28;20412;-66
2022/05/16 02:17:45;;;;;;;3.22;1.10;;;;;;;19.10;31.76;98227.03;5051690;28;20063;-66
2022/05/16 02:20:12;;;;;;;1.88;1.10;;;;;;;19.16;31.71;98233.31;5032961;28;20049;-66
2022/05/16 02:25:22;;;;;;;2.92;1.13;;;;;;;18.60;32.14;98207.41;5036117;28;20463;-65
2022/05/16 02:27:49;;;;;;;1.35;1.00;;;;;;;18.64;32.68;98207.72;5033041;28;20053;-67
2022/05/16 02:30:15;;;;;;;3.40;1.10;;;;;;;18.72;32.50;98226.16;4999979;28;20047;-67
2022/05/16 02:32:41;;;;;;;2.53;1.45;;;;;;;18.73;32.37;98227.78;5032677;28;20052;-66
2022/05/16 02:35:07;;;;;;;2.22;0.82;;;;;;;18.63;32.86;98230.31;5032616;28;20044;-66
2022/05/16 02:37:33;;;;;;;1.08;0.90;;;;;;;18.53;33.17;98238.22;5050667;28;20456;-66
2022/05/16 02:39:59;;;;;;;1.42;0.90;;;;;;;18.58;32.71;98235.59;5016911;28;20049;-66
2022/05/16 02:42:32;;;;;;;2.08;1.00;;;;;;;18.85;32.58;98244.66;5000237;28;20037;-66
2022/05/16 02:44:58;;;;;;;2.30;0.93;;;;;;;18.57;32.79;98244.72;5033174;28;20144;-67
2022/05/16 02:47:24;;;;;;;2.58;1.08;;;;;;;18.69;32.85;98248.16;5033242;28;20131;-66
2022/05/16 02:49:51;;;;;;;3.80;1.15;;;;;;;18.46;33.15;98241.03;5033719;28;20037;-66
2022/05/16 02:52:17;;;;;;;1.92;1.00;;;;;;;18.54;33.08;98235.28;5032982;28;20041;-67
2022/05/16 02:54:43;;;;;;;2.08;0.98;;;;;;;18.48;32.82;98221.97;5016408;28;20037;-67
2022/05/16 02:57:09;;;;;;;1.23;1.00;;;;;;;18.68;32.88;98236.59;4983847;28;20507;-66
2022/05/16 02:59:36;;;;;;;2.42;1.10;;;;;;;18.48;33.00;98219.28;5016569;28;20497;-65
2022/05/16 03:02:05;;;;;;;1.05;1.00;;;;;;;18.75;32.75;98237.25;5050415;28;20386;-68
2022/05/16 03:04:32;;;;;;;2.08;1.10;;;;;;;18.61;32.82;98241.31;4999770;28;20040;-69
2022/05/16 03:06:58;;;;;;;2.40;1.02;;;;;;;18.49;32.83;98237.88;5015593;28;20048;-69
2022/05/16 03:09:25;;;;;;;2.15;1.08;;;;;;;18.66;32.83;98254.84;5015990;28;20041;-71
2022/05/16 03:11:52;;;;;;;1.30;1.00;;;;;;;18.61;32.83;98254.75;5032987;28;20080;-70
2022/05/16 03:14:18;;;;;;;2.00;1.00;;;;;;;18.44;32.78;98227.00;5016392;28;20041;-70
2022/05/16 03:16:44;;;;;;;2.33;1.15;;;;;;;18.64;32.19;98254.25;5016041;28;20049;-71
2022/05/16 03:19:09;;;;;;;5.47;1.08;;;;;;;18.66;32.00;98254.03;5015852;28;20048;-70
2022/05/16 03:21:35;;;;;;;1.83;1.02;;;;;;;18.60;31.94;98234.31;4999949;28;20456;-70
2022/05/16 03:24:01;;;;;;;1.55;1.00;;;;;;;18.58;31.89;98247.16;4999841;28;20040;-70
2022/05/16 03:26:27;;;;;;;1.30;1.10;;;;;;;18.79;31.56;98270.66;5032489;28;20041;-69
2022/05/16 03:28:53;;;;;;;0.73;0.70;;;;;;;18.91;31.57;98268.72;5016148;28;20072;-69
2022/05/16 03:31:19;;;;;;;4.70;1.00;;;;;;;19.01;31.33;98274.25;5016227;28;20052;-69
2022/05/16 03:33:46;;;;;;;2.10;0.90;;;;;;;18.90;31.19;98267.06;5015539;28;20040;-69
2022/05/16 03:36:12;;;;;;;1.98;0.90;;;;;;;18.95;31.17;98269.03;5015645;28;20048;-69
2022/05/16 03:41:22;;;;;;;0.82;0.82;;;;;;;19.10;30.80;98277.34;5035415;28;20547;-69
2022/05/16 03:43:48;;;;;;;1.55;0.95;;;;;;;19.30;30.57;98273.13;5032229;28;20078;-69
2022/05/16 03:46:13;;;;;;;2.42;1.10;;;;;;;19.19;30.57;98278.59;4983438;28;20045;-68
2022/05/16 03:48:39;;;;;;;4.50;0.98;;;;;;;19.14;30.71;98282.03;5015416;28;20106;-69
2022/05/16 03:51:07;;;;;;;5.18;0.98;;;;;;;19.26;30.51;98271.16;5015906;28;20123;-70
2022/05/16 03:53:35;;;;;;;2.58;0.90;;;;;;;19.20;30.42;98283.72;5015666;28;20040;-70
2022/05/16 03:56:02;;;;;;;1.35;1.05;;;;;;;19.28;30.25;98275.25;5000007;28;20448;-70
2022/05/16 03:58:29;;;;;;;1.67;0.82;;;;;;;19.20;30.00;98262.19;5015607;28;20126;-69
2022/05/16 04:00:55;;;;;;;1.45;0.88;;;;;;;19.29;30.32;98273.38;5032591;28;20493;-70
2022/05/16 04:03:20;;;;;;;0.73;0.70;;;;;;;19.24;30.11;98271.41;5015883;28;20174;-68
2022/05/16 04:05:46;;;;;;;3.88;0.80;;;;;;;19.25;30.11;98278.41;4999940;28;20041;-67
2022/05/16 04:08:12;;;;;;;2.85;1.10;;;;;;;19.31;30.11;98282.81;5011654;28;20045;-66
2022/05/16 04:10:37;;;;;;;5.05;0.82;;;;;;;19.31;29.90;98290.09;5030957;28;20381;-69
2022/05/16 04:13:03;;;;;;;4.53;1.08;;;;;;;19.13;29.91;98258.84;5030087;28;20113;-68
2022/05/16 04:15:29;;;;;;;2.33;1.55;;;;;;;19.29;29.74;98282.28;5047153;28;20519;-67
2022/05/16 04:17:54;;;;;;;7.60;1.67;;;;;;;19.31;29.57;98285.53;5047583;28;20071;-69
2022/05/16 04:20:21;;;;;;;11.75;6.50;;;;;;;19.29;29.74;98278.75;5052033;28;20057;-68
2022/05/16 04:22:47;;;;;;;6.03;1.50;;;;;;;19.39;29.67;98287.00;5034272;28;20476;-67
2022/05/16 04:25:15;;;;;;;3.38;1.10;;;;;;;19.67;29.26;98279.59;5052274;28;20129;-65
2022/05/16 04:27:41;;;;;;;4.40;1.33;;;;;;;19.62;29.43;98281.41;5052000;28;20048;-65
2022/05/16 04:30:08;;;;;;;7.28;1.65;;;;;;;19.60;29.07;98288.91;5017522;28;20044;-66
2022/05/16 04:32:34;;;;;;;2.42;1.23;;;;;;;19.63;29.43;98285.72;5017718;28;20036;-66
2022/05/16 04:35:01;;;;;;;1.83;0.73;;;;;;;19.52;29.08;98282.09;5052169;28;20135;-67
2022/05/16 04:37:32;;;;;;;2.50;1.10;;;;;;;19.59;29.34;98276.50;5051926;28;20143;-69
2022/05/16 04:40:00;;;;;;;;;;;;;;;20.11;28.55;98283.94;5034862;28;20045;-66
2022/05/16 04:42:41;;;;;;;9.10;6.00;;;;;;;19.77;28.90;98273.53;5018554;28;19924;-67
2022/05/16 04:45:22;;;;;;;7.88;2.92;;;;;;;20.38;28.03;98277.78;5052509;28;20075;-69
2022/05/16 04:47:49;;;;;;;;;;;;;;;20.56;27.50;98282.84;5012692;28;20037;-69
2022/05/16 04:50:20;;;;;;;3.95;1.23;;;;;;;20.44;27.83;98274.06;4996401;28;20459;-70
2022/05/16 04:52:46;;;;;;;2.60;0.82;;;;;;;20.38;27.10;98278.63;4979770;28;20604;-68
2022/05/16 04:55:12;;;;;;;4.85;1.33;;;;;;;20.65;26.60;98284.03;4963587;28;20057;-70
2022/05/16 04:57:38;;;;;;;12.20;6.30;;;;;;;20.65;26.65;98262.44;4995687;28;20060;-71
2022/05/16 05:00:06;;;;;;;1.75;0.68;;;;;;;20.94;25.49;98245.69;4963156;28;20772;-70
2022/05/16 05:02:31;;;;;;;12.25;1.10;;;;;;;21.13;25.70;98273.13;4995645;28;20042;-69
2022/05/16 05:04:59;;;;;;;1.45;0.90;;;;;;;21.30;25.22;98263.00;5013626;28;20034;-70
2022/05/16 05:07:26;;;;;;;9.00;0.90;;;;;;;21.54;24.91;98277.75;5031809;28;20135;-73
2022/05/16 05:15:23;;;;;;;3.60;0.68;;;;;;;21.68;24.74;98271.63;5010070;28;20420;-70
2022/05/16 05:17:49;;;;;;;1.13;0.70;;;;;;;21.45;25.00;98257.69;5030884;28;20050;-69
2022/05/16 05:20:15;;;;;;;4.95;0.80;;;;;;;21.37;25.26;98269.00;4996148;28;20061;-69
2022/05/16 05:22:46;;;;;;;3.17;0.90;;;;;;;21.42;25.57;98260.91;5012713;28;20467;-69
2022/05/16 05:25:15;;;;;;;2.40;0.70;;;;;;;21.64;25.41;98267.81;4997309;28;20052;-68
2022/05/16 05:27:42;;;;;;;1.88;0.80;;;;;;;21.87;24.73;98277.41;5031069;28;20056;-69
2022/05/16 05:30:12;;;;;;;3.15;0.70;;;;;;;22.08;24.45;98264.81;5013288;28;20041;-69
2022/05/16 05:32:38;;;;;;;0.60;0.60;;;;;;;22.35;23.67;98276.25;5013860;28;20041;-69
2022/05/16 05:35:05;;;;;;;1.65;0.80;;;;;;;22.57;23.62;98257.94;5013498;28;20046;-69
2022/05/16 05:37:31;;;;;;;1.10;0.68;;;;;;;22.75;23.05;98249.31;4997373;28;20128;-69
2022/05/16 05:40:01;;;;;;;3.00;0.70;;;;;;;22.47;22.89;98272.22;4980874;28;20501;-69
2022/05/16 05:42:31;;;;;;;7.55;0.60;;;;;;;23.47;21.65;98216.50;5014051;28;20482;-71
2022/05/16 05:44:58;;;;;;;2.83;0.70;;;;;;;22.89;22.23;98266.66;4996961;28;20091;-71
2022/05/16 05:47:24;;;;;;;0.85;0.65;;;;;;;22.49;22.71;98239.50;4997733;28;20053;-69
2022/05/16 05:49:50;;;;;;;2.05;0.85;;;;;;;22.47;22.71;98245.19;4981059;28;20417;-69
2022/05/16 05:52:15;;;;;;;4.43;0.70;;;;;;;22.85;22.08;98279.91;5013091;28;20037;-69
2022/05/16 05:54:45;;;;;;;1.33;0.60;;;;;;;22.51;22.58;98251.69;4980264;28;20537;-69
2022/05/16 05:57:12;;;;;;;0.80;0.60;;;;;;;23.21;21.97;98275.31;5013132;28;20054;-68
2022/05/16 05:59:37;;;;;;;3.47;0.60;;;;;;;23.21;21.88;98243.63;5013298;28;20045;-68
2022/05/16 06:02:04;;;;;;;1.25;0.70;;;;;;;23.57;21.37;98282.31;5013347;28;20076;-69
2022/05/16 06:04:30;;;;;;;2.17;0.73;;;;;;;23.69;21.23;98269.31;4996417;28;20499;-69
2022/05/16 06:06:56;;;;;;;3.55;1.00;;;;;;;23.82;21.20;98262.50;4997061;28;20065;-69
2022/05/16 06:09:21;;;;;;;2.33;0.60;;;;;;;23.74;21.15;98265.78;4980804;28;20068;-69
2022/05/16 06:11:48;;;;;;;2.67;0.90;;;;;;;23.77;21.38;98273.34;5012040;28;20041;-69
2022/05/16 06:14:15;;;;;;;1.50;0.88;;;;;;;23.69;21.01;98271.19;4996362;28;20495;-69
2022/05/16 06:16:42;;;;;;;2.40;0.60;;;;;;;23.23;21.26;98273.94;4996580;28;20048;-69
2022/05/16 06:19:11;;;;;;;5.78;0.70;;;;;;;23.27;21.12;98280.50;4996469;28;20061;-69
2022/05/16 06:21:37;;;;;;;5.30;0.60;;;;;;;23.41;21.31;98282.63;5012600;28;20045;-69
2022/05/16 06:24:03;;;;;;;1.70;0.65;;;;;;;23.51;21.20;98248.19;5012716;28;20049;-69
2022/05/16 06:26:29;;;;;;;3.47;0.80;;;;;;;23.87;20.73;98270.59;4996022;28;20037;-70
2022/05/16 06:28:58;;;;;;;0.60;0.60;;;;;;;24.39;20.16;98269.06;5013045;28;20045;-69
2022/05/16 06:31:23;;;;;;;1.73;0.70;;;;;;;24.06;20.50;98253.50;4980527;28;20033;-69
2022/05/16 06:33:49;;;;;;;9.27;1.00;;;;;;;24.18;20.63;98275.69;5012370;28;20056;-69
2022/05/16 06:36:16;;;;;;;4.15;0.60;;;;;;;24.43;20.50;98267.38;4979730;28;20037;-69
2022/05/16 06:38:42;;;;;;;3.38;0.68;;;;;;;24.19;20.47;98277.28;5012601;28;20053;-69
2022/05/16 06:41:08;;;;;;;3.47;0.70;;;;;;;24.00;21.08;98270.84;5013046;28;20069;-69
2022/05/16 06:43:34;;;;;;;4.63;0.90;;;;;;;23.87;21.01;98270.59;4995775;28;20067;-68
2022/05/16 06:46:02;;;;;;;1.08;0.55;;;;;;;23.72;20.76;98202.88;5011386;28;20107;-69
2022/05/16 06:48:30;;;;;;;1.92;0.70;;;;;;;23.88;20.81;98270.31;4995628;28;20049;-69
2022/05/16 06:50:58;;;;;;;0.80;0.50;;;;;;;24.21;20.53;98271.59;5012637;28;20194;-69
2022/05/16 06:53:30;;;;;;;1.77;0.73;;;;;;;24.87;20.18;98278.28;5011992;28;20493;-68
2022/05/16 06:55:56;;;;;;;3.00;0.60;;;;;;;24.74;20.04;98278.91;5013028;28;20045;-68
2022/05/16 06:58:23;;;;;;;2.50;0.70;;;;;;;24.80;19.82;98286.75;5026430;28;20060;-69
2022/05/16 07:00:49;;;;;;;3.17;0.70;;;;;;;25.33;18.95;98260.53;5031370;28;20139;-67
2022/05/16 07:03:15;;;;;;;3.28;0.50;;;;;;;25.07;18.29;98277.31;5030630;28;20106;-67
2022/05/16 07:05:41;;;;;;;2.63;0.50;;;;;;;24.79;18.53;98276.97;5031097;28;20401;-68
2022/05/16 07:08:07;;;;;;;0.57;0.50;;;;;;;25.01;18.37;98278.44;5030294;28;20045;-68
2022/05/16 07:10:33;;;;;;;2.90;0.77;;;;;;;25.07;18.13;98266.44;5048978;28;20139;-69
2022/05/16 07:13:02;;;;;;;2.67;0.70;;;;;;;24.81;18.37;98268.56;5030354;28;20135;-70
2022/05/16 07:15:28;;;;;;;3.50;1.00;;;;;;;25.29;18.28;98274.97;5014389;28;20128;-68
2022/05/16 07:17:53;;;;;;;0.70;0.60;;;;;;;25.73;17.09;98243.00;5014137;28;20475;-69
2022/05/16 07:20:19;;;;;;;2.72;0.65;;;;;;;26.47;16.70;98270.41;5030630;28;20492;-67
2022/05/16 07:22:46;;;;;;;8.40;1.13;;;;;;;27.25;15.99;98270.56;5031440;28;20048;-67
2022/05/16 07:25:14;;;;;;;1.90;0.80;;;;;;;28.17;15.41;98277.63;5014456;28;20053;-67
2022/05/16 07:27:59;;;;;;;4.80;0.70;;;;;;;29.52;14.41;98276.44;5030502;28;20041;-67
2022/05/16 07:30:27;;;;;;;1.10;0.88;;;;;;;30.92;13.17;98283.38;5014686;28;20505;-68
2022/05/16 07:32:56;;;;;;;5.82;1.05;;;;;;;31.43;12.45;98279.81;5031293;28;20037;-68
2022/05/16 07:35:28;;;;;;;2.05;0.80;;;;;;;32.19;11.48;98284.25;5048586;28;20053;-66
2022/05/16 07:37:54;;;;;;;7.78;0.80;;;;;;;31.61;12.05;98250.38;5014764;28;20131;-67
2022/05/16 07:40:22;;;;;;;4.97;0.70;;;;;;;31.18;11.91;98270.44;5068706;28;20603;-67
2022/05/16 07:42:49;;;;;;;3.10;0.80;;;;;;;30.34;12.89;98282.13;5051131;28;20472;-67
2022/05/16 07:45:15;;;;;;;1.30;0.50;;;;;;;28.83;13.82;98268.84;5068652;28;20041;-67
2022/05/16 07:47:40;;;;;;;2.30;0.80;;;;;;;27.36;15.05;98255.69;5068530;28;20082;-67
2022/05/16 07:50:07;;;;;;;6.85;0.77;;;;;;;26.32;16.48;98273.34;5017120;28;20128;-67
2022/05/16 07:52:36;;;;;;;5.70;0.98;;;;;;;25.98;16.36;98259.03;5068599;28;20052;-67
2022/05/16 07:55:03;;;;;;;3.35;0.70;;;;;;;25.59;16.82;98269.25;5070363;28;20105;-67
2022/05/16 07:57:30;;;;;;;2.05;0.85;;;;;;;25.66;16.89;98267.81;5054457;28;20040;-68
2022/05/16 07:59:56;;;;;;;3.67;1.00;;;;;;;26.21;16.17;98267.22;5072912;28;20488;-67
2022/05/16 08:02:22;;;;;;;2.35;1.00;;;;;;;28.21;14.59;98259.53;5021794;28;20044;-67
2022/05/16 08:04:48;;;;;;;5.80;1.08;;;;;;;31.52;12.11;98269.63;5054255;28;20198;-68
2022/05/16 08:07:13;;;;;;;4.82;1.10;;;;;;;32.82;11.28;98254.91;5021175;28;20072;-67
2022/05/16 08:12:28;;;;;;;4.50;1.00;;;;;;;33.37;10.75;98267.22;5056637;28;20040;-68
2022/05/16 08:14:54;;;;;;;6.70;1.10;;;;;;;32.64;11.24;98260.56;5072687;28;20040;-67
2022/05/16 08:17:20;;;;;;;2.45;0.68;;;;;;;34.48;9.62;98274.22;5054001;28;20070;-66
2022/05/16 08:19:46;;;;;;;1.02;0.50;;;;;;;33.85;9.53;98270.13;5037285;28;20049;-67
2022/05/16 08:22:12;;;;;;;1.23;0.73;;;;;;;33.59;9.81;98246.78;5054013;28;20590;-67
2022/05/16 08:24:38;;;;;;;1.70;0.70;;;;;;;33.27;10.43;98242.91;5072377;28;20071;-67
2022/05/16 08:27:04;;;;;;;2.83;0.57;;;;;;;32.12;11.26;98244.72;5053832;28;20075;-67
2022/05/16 08:29:30;;;;;;;2.33;0.80;;;;;;;32.70;11.46;98258.44;5004336;28;20094;-68
2022/05/16 08:31:56;;;;;;;2.25;0.80;;;;;;;34.82;9.38;98254.38;5037825;28;20036;-68
2022/05/16 08:34:24;;;;;;;2.47;0.80;;;;;;;37.66;7.54;98255.06;5072151;28;20139;-68
2022/05/16 08:42:41;;;;;;;1.13;0.70;;;;;;;34.83;8.77;98236.66;5039991;28;20424;-68
2022/05/16 08:45:28;;;;;;;6.13;0.95;;;;;;;32.60;10.63;98221.13;5048500;28;20059;-68
2022/05/16 08:47:55;;;;;;;6.03;0.93;;;;;;;31.82;11.58;98249.34;5036658;28;20051;-69
2022/05/16 08:50:26;;;;;;;1.55;0.68;;;;;;;30.54;12.78;98238.50;5020901;28;20476;-68
2022/05/16 08:52:57;;;;;;;3.60;0.80;;;;;;;29.79;13.72;98254.38;5037308;28;20041;-67
2022/05/16 08:55:28;;;;;;;;;;;;;;;28.87;14.46;98256.16;5072399;28;20063;-67
2022/05/16 08:57:58;;;;;;;5.25;0.70;;;;;;;28.25;14.62;98224.25;5001146;28;19921;-68
2022/05/16 09:00:35;;;;;;;1.85;1.08;;;;;;;29.11;14.46;98249.31;5052060;28;20492;-67
2022/05/16 09:03:04;;;;;;;1.50;0.88;;;;;;;31.55;12.07;98252.50;5001291;28;20528;-70
2022/05/16 09:05:40;;;;;;;5.65;1.35;;;;;;;34.56;10.27;98258.69;5049205;28;20544;-70
2022/05/16 09:08:13;;;;;;;1.55;0.60;;;;;;;35.36;9.19;98260.31;5032192;28;20045;-66
2022/05/16 09:11:01;;;;;;;12.98;1.23;;;;;;;33.61;10.86;98263.78;5018399;28;20076;-67
2022/05/16 09:13:45;;;;;;;9.38;1.00;;;;;;;31.94;11.62;98260.47;5032649;28;20068;-68
2022/05/16 09:16:30;;;;;;;7.82;0.80;;;;;;;30.98;13.26;98264.84;5049646;28;20052;-68
2022/05/16 09:19:22;;;;;;;1.88;0.88;;;;;;;30.32;14.87;98257.00;5049553;28;20138;-66
2022/05/16 09:21:56;;;;;;;9.23;1.10;;;;;;;29.60;16.64;98273.75;5016918;28;20045;-67
2022/05/16 09:24:28;;;;;;;4.97;1.20;;;;;;;29.08;15.99;98255.41;5033751;28;20055;-67
2022/05/16 09:30:15;;;;;;;4.88;1.10;;;;;;;27.92;16.10;98253.59;5018678;28;20048;-67
2022/05/16 09:32:45;;;;;;;5.18;0.88;;;;;;;27.74;15.38;98257.16;5000411;28;20063;-68
2022/05/16 09:35:22;;;;;;;2.85;0.90;;;;;;;27.76;15.78;98254.94;5016870;28;20090;-68
2022/05/16 09:37:50;;;;;;;2.58;1.10;;;;;;;27.54;15.49;98249.34;5050182;28;20045;-67
2022/05/16 09:40:21;;;;;;;2.67;1.30;;;;;;;28.02;15.19;98262.38;5032790;28;20044;-67
2022/05/16 09:42:49;;;;;;;0.85;0.70;;;;;;;29.35;13.76;98251.72;5016493;28;20087;-67
2022/05/16 09:45:22;;;;;;;3.72;0.85;;;;;;;31.17;12.70;98257.06;5015038;28;20080;-67
2022/05/16 09:47:47;;;;;;;2.10;0.85;;;;;;;31.29;12.03;98262.75;4999766;28;20041;-68
2022/05/16 09:50:27;;;;;;;2.70;0.82;;;;;;;31.86;11.81;98257.75;4998346;28;20067;-68
2022/05/16 09:52:59;;;;;;;4.72;0.95;;;;;;;32.82;10.83;98260.41;5032827;28;20041;-69
2022/05/16 09:55:54;;;;;;;1.40;0.70;;;;;;;33.33;10.10;98241.53;5016163;28;20044;-68
2022/05/16 09:58:21;;;;;;;1.95;0.80;;;;;;;33.38;10.00;98254.28;4998406;28;20044;-68
2022/05/16 10:00:55;;;;;;;4.63;0.75;;;;;;;34.22;9.37;98247.00;5016058;28;20146;-69
2022/05/16 10:03:30;;;;;;;3.30;0.70;;;;;;;34.11;10.24;98240.34;5015868;28;20049;-69
2022/05/16 10:06:01;;;;;;;5.60;0.88;;;;;;;33.53;10.21;98235.19;5032247;28;20505;-68
2022/05/16 10:08:38;;;;;;;2.78;0.90;;;;;;;32.77;10.52;98247.69;5014013;28;20047;-71
2022/05/16 10:11:12;;;;;;;3.15;1.10;;;;;;;33.28;9.83;98262.94;4989788;28;20080;-69
2022/05/16 10:13:38;;;;;;;4.78;0.80;;;;;;;33.42;10.09;98255.22;5031201;28;20504;-68
2022/05/16 10:16:07;;;;;;;2.33;0.80;;;;;;;35.02;9.20;98249.84;5011908;28;20049;-69
2022/05/16 10:18:42;;;;;;;3.03;0.65;;;;;;;35.89;8.74;98253.47;5017281;28;20202;-68
2022/05/16 10:21:13;;;;;;;3.13;0.77;;;;;;;35.41;8.65;98260.84;5010846;28;20096;-68
2022/05/16 10:23:42;;;;;;;3.28;0.82;;;;;;;34.56;9.33;98265.00;5032733;28;20056;-69
2022/05/16 10:26:13;;;;;;;3.03;0.98;;;;;;;34.21;9.62;98250.09;5010407;28;20174;-69
2022/05/16 10:28:46;;;;;;;6.75;0.95;;;;;;;34.39;9.58;98262.50;5026292;28;20044;-70
2022/05/16 10:34:22;;;;;;;8.85;0.98;;;;;;;36.39;9.15;98268.16;5008437;28;20071;-69
2022/05/16 10:36:52;;;;;;;6.53;0.80;;;;;;;35.89;8.71;98239.66;5012391;28;20052;-69
2022/05/16 10:39:23;;;;;;;4.70;0.90;;;;;;;36.50;8.32;98276.72;5018911;28;20127;-68
2022/05/16 10:42:04;;;;;;;1.48;0.60;;;;;;;35.87;8.51;98264.06;5031145;28;20405;-69
2022/05/16 10:44:52;;;;;;;4.57;0.70;;;;;;;34.56;8.83;98264.19;5028302;28;20094;-71
2022/05/16 10:47:26;;;;;;;3.08;0.50;;;;;;;33.51;9.42;98265.00;5011419;28;20056;-70
2022/05/16 10:50:09;;;;;;;1.98;0.60;;;;;;;32.19;9.72;98223.00;5012565;28;20103;-69
2022/05/16 10:52:46;;;;;;;3.35;0.60;;;;;;;31.44;10.18;98262.22;5027245;28;20056;-71
2022/05/16 10:55:11;;;;;;;2.53;0.65;;;;;;;29.99;11.25;98269.44;5011636;28;20037;-69
2022/05/16 10:58:04;;;;;;;2.63;0.50;;;;;;;29.00;12.18;98272.50;5012746;28;20048;-69
2022/05/16 11:00:40;;;;;;;1.80;0.40;;;;;;;27.52;13.69;98267.97;4996362;28;20097;-70
2022/05/16 11:03:13;;;;;;;4.20;0.40;;;;;;;26.91;13.91;98270.06;4998264;28;20182;-70
2022/05/16 11:05:47;;;;;;;1.63;0.57;;;;;;;26.15;14.90;98256.69;4998464;28;20106;-68
2022/05/16 11:08:36;;;;;;;3.53;0.70;;;;;;;26.44;15.15;98263.63;5050339;28;20059;-67
2022/05/16 11:11:18;;;;;;;2.15;0.60;;;;;;;26.73;14.96;98262.69;5034691;28;20098;-69
2022/05/16 11:14:21;;;;;;;5.68;1.10;;;;;;;26.84;14.86;98248.63;5050474;28;20052;-68
2022/05/16 11:16:50;;;;;;;1.23;0.90;;;;;;;26.35;15.23;98234.63;5020840;28;20201;-67
2022/05/16 11:19:50;;;;;;;2.58;0.70;;;;;;;26.97;15.26;98285.22;5031304;28;20060;-68
2022/05/16 11:22:45;;;;;;;4.47;0.70;;;;;;;27.18;15.34;98294.69;5031380;28;20040;-67
2022/05/16 11:25:20;;;;;;;4.78;0.45;;;;;;;27.16;16.66;98286.81;5030828;28;20171;-69
2022/05/16 11:28:14;;;;;;;4.72;0.60;;;;;;;27.00;17.45;98293.59;5015090;28;20561;-69
2022/05/16 11:30:46;;;;;;;3.75;0.70;;;;;;;26.73;17.60;98279.84;5031067;28;20766;-68
2022/05/16 11:33:31;;;;;;;0.98;0.60;;;;;;;26.90;16.79;98269.25;4998834;28;20045;-68
2022/05/16 11:36:21;;;;;;;2.30;0.50;;;;;;;27.43;16.38;98247.94;5027061;28;20044;-69
2022/05/16 11:39:05;;;;;;;3.00;0.50;;;;;;;27.68;16.08;98252.91;5018753;28;20064;-67
2022/05/16 11:41:40;;;;;;;1.15;0.80;;;;;;;28.23;14.83;98264.69;5046218;28;20041;-68
2022/05/16 11:44:27;;;;;;;1.05;0.50;;;;;;;28.44;13.92;98242.09;5029579;28;20041;-68
2022/05/16 11:47:09;;;;;;;3.15;0.63;;;;;;;29.03;13.62;98252.75;5046771;28;20045;-69
2022/05/16 11:50:04;;;;;;;0.93;0.52;;;;;;;28.93;14.10;98249.44;5047400;28;20073;-67
2022/05/16 11:52:36;;;;;;;0.60;0.60;;;;;;;28.55;14.32;98240.78;4994622;28;20045;-68
2022/05/16 12:00:52;;;;;;;3.50;0.90;;;;;;;27.88;14.65;98225.28;5049977;28;20049;-68
2022/05/16 12:03:23;;;;;;;2.20;0.80;;;;;;;27.52;14.75;98224.31;5047694;28;20041;-66
2022/05/16 12:05:53;;;;;;;1.65;0.65;;;;;;;27.14;14.73;98234.50;5032486;28;20136;-67
2022/05/16 12:08:25;;;;;;;4.35;0.98;;;;;;;27.14;15.14;98241.88;5046909;28;20122;-68
2022/05/16 12:11:02;;;;;;;1.77;0.77;;;;;;;26.98;15.22;98243.25;5047549;28;20049;-69
2022/05/16 12:13:32;;;;;;;2.40;1.30;;;;;;;26.60;15.81;98247.88;5050935;28;20083;-68
2022/05/16 12:16:16;;;;;;;3.03;1.10;;;;;;;26.57;15.94;98259.34;4995763;28;20099;-69
2022/05/16 12:19:08;;;;;;;4.10;1.27;;;;;;;26.15;16.78;98243.88;5022586;28;20081;-67
2022/05/16 12:21:38;;;;;;;4.05;0.80;;;;;;;25.83;17.25;98227.38;5028521;28;20049;-68